createdAt,value
2022-11-17T09:29:15.543Z,5.20
2022-11-17T09:35:09.589Z,5.72
2022-11-17T09:41:22.383Z,4.47
2022-11-17T09:48:02.373Z,4.75
2022-11-17T09:54:26.723Z,4.97
2022-11-17T10:00:21.161Z,4.88
2022-11-17T10:06:33.846Z,4.43
2022-11-17T10:12:31.373Z,5.72
2022-11-17T10:18:24.403Z,5.20
2022-11-17T10:24:38.348Z,5.63
2022-11-17T10:30:31.222Z,4.43
2022-11-17T10:36:29.980Z,3.28
2022-11-17T10:42:28.020Z,3.22
2022-11-17T10:48:30.624Z,3.33
2022-11-17T10:54:23.642Z,4.00
2022-11-17T11:00:37.601Z,1.80
2022-11-17T11:06:32.685Z,3.58
2022-11-17T11:13:01.390Z,2.88
2022-11-17T11:18:53.954Z,4.28
2022-11-17T11:24:53.942Z,5.15
2022-11-17T11:30:59.581Z,4.05
2022-11-17T11:37:14.243Z,3.97
2022-11-17T11:43:27.589Z,3.83
2022-11-17T11:49:31.584Z,2.55
2022-11-17T11:55:35.129Z,4.32
2022-11-17T12:01:32.649Z,3.73
2022-11-17T12:07:47.824Z,4.90
2022-11-17T12:13:47.286Z,6.40
2022-11-17T12:19:48.696Z,7.25
2022-11-17T12:25:54.117Z,4.35
2022-11-17T12:31:51.111Z,3.78
2022-11-17T12:37:43.642Z,4.82
2022-11-17T12:43:36.723Z,4.38
2022-11-17T12:49:46.311Z,5.18
2022-11-17T12:55:47.520Z,4.82
2022-11-17T13:01:53.446Z,6.85
2022-11-17T13:07:45.725Z,5.72
2022-11-17T13:13:43.965Z,4.38
2022-11-17T13:19:41.847Z,4.93
2022-11-17T13:25:35.203Z,4.63
2022-11-17T13:31:27.800Z,6.70
2022-11-17T13:37:26.681Z,5.85
2022-11-17T13:43:21.890Z,6.13
2022-11-17T13:49:50.379Z,6.65
2022-11-17T13:55:49.261Z,9.02
2022-11-17T14:01:41.781Z,8.23
2022-11-17T14:07:37.079Z,5.00
2022-11-17T14:13:32.450Z,6.82
2022-11-17T14:19:30.263Z,4.93
2022-11-17T14:25:23.903Z,4.88
2022-11-17T14:31:18.276Z,7.70
2022-11-17T14:37:13.265Z,4.82
2022-11-17T14:43:06.811Z,8.85
2022-11-17T14:48:58.740Z,6.57
2022-11-17T14:54:51.043Z,6.78
2022-11-17T15:00:44.106Z,7.07
2022-11-17T15:06:38.148Z,6.78
2022-11-17T15:12:30.935Z,5.80
2022-11-17T15:18:23.182Z,7.25
2022-11-17T15:24:16.258Z,6.53
2022-11-17T15:30:09.667Z,7.07
2022-11-17T15:36:05.893Z,7.97
2022-11-17T15:41:58.300Z,5.68
2022-11-17T15:53:45.443Z,6.72
2022-11-17T15:59:37.768Z,6.40
2022-11-17T16:05:30.385Z,7.07
2022-11-17T16:11:23.651Z,10.02
2022-11-17T16:17:15.791Z,12.73
2022-11-17T16:23:08.064Z,11.98
2022-11-17T16:29:02.622Z,9.13
2022-11-17T16:34:55.407Z,10.10
2022-11-17T16:40:48.991Z,10.50
2022-11-17T16:46:43.651Z,7.40
2022-11-17T16:52:36.182Z,8.23
2022-11-17T16:58:28.113Z,4.38
2022-11-17T17:04:20.365Z,6.55
2022-11-17T17:10:13.301Z,6.63
2022-11-17T17:16:08.812Z,7.50
2022-11-17T17:22:01.836Z,5.90
2022-11-17T17:27:54.064Z,9.10
2022-11-17T17:33:46.584Z,7.03
2022-11-17T17:39:39.221Z,7.33
2022-11-17T17:45:31.362Z,5.47
2022-11-17T17:51:25.284Z,4.18
2022-11-17T17:57:17.456Z,5.75
2022-11-17T18:09:02.423Z,6.38
2022-11-17T18:14:54.832Z,6.10
2022-11-17T18:20:47.432Z,5.90
2022-11-17T18:26:41.246Z,5.75
2022-11-17T18:32:34.670Z,5.35
2022-11-17T18:38:27.112Z,5.93
2022-11-17T18:44:19.905Z,5.10
2022-11-17T18:50:12.375Z,7.30
2022-11-17T18:56:10.821Z,7.20
2022-11-17T19:02:03.463Z,10.65
2022-11-17T19:07:57.532Z,7.72
2022-11-17T19:13:50.403Z,8.32
2022-11-17T19:19:42.512Z,12.43
2022-11-17T19:25:42.082Z,9.95
2022-11-17T19:31:34.946Z,9.00
2022-11-17T19:37:27.492Z,12.10
2022-11-17T19:43:19.742Z,10.00
2022-11-17T19:49:13.072Z,10.40
2022-11-17T19:55:06.484Z,10.85
2022-11-17T20:00:59.478Z,9.27
2022-11-17T20:06:52.307Z,9.52
2022-11-17T20:12:44.872Z,9.05
2022-11-17T20:18:37.771Z,6.22
2022-11-17T20:24:30.750Z,10.63
2022-11-17T20:30:22.943Z,7.57
2022-11-17T20:36:19.791Z,5.95
2022-11-17T20:42:14.533Z,7.75
2022-11-17T20:48:07.251Z,5.68
2022-11-17T20:54:00.422Z,9.20
2022-11-17T20:59:53.284Z,7.40
2022-11-17T21:05:59.163Z,9.25
2022-11-17T21:11:57.798Z,10.45
2022-11-17T21:18:08.631Z,8.63
2022-11-17T21:24:00.590Z,8.23
2022-11-17T21:29:53.099Z,10.65
2022-11-17T21:35:46.182Z,11.00
2022-11-17T21:41:39.232Z,12.98
2022-11-17T21:47:31.719Z,8.18
2022-11-17T21:53:25.144Z,11.93
2022-11-17T21:59:17.936Z,12.60
2022-11-17T22:05:11.272Z,16.10
2022-11-17T22:11:06.958Z,12.50
2022-11-17T22:16:58.874Z,13.25
2022-11-17T22:22:54.334Z,9.40
2022-11-17T22:28:54.360Z,10.77
2022-11-17T22:34:47.011Z,11.82
2022-11-17T22:40:42.572Z,11.48
2022-11-17T22:46:36.244Z,10.55
2022-11-17T22:52:28.739Z,8.55
2022-11-17T22:58:21.532Z,8.70
2022-11-17T23:04:15.118Z,9.63
2022-11-17T23:10:07.317Z,11.40
2022-11-17T23:16:04.591Z,11.32
2022-11-17T23:21:56.791Z,11.57
2022-11-17T23:27:49.363Z,11.40
2022-11-17T23:33:45.061Z,12.20
2022-11-17T23:39:37.329Z,12.80
2022-11-17T23:45:30.272Z,10.68
2022-11-17T23:51:25.530Z,9.60
2022-11-17T23:57:18.551Z,11.25
